createdAt,value
2017-07-31T00:00:55.073Z,89.90
2017-07-31T00:03:22.630Z,89.30
2017-07-31T00:05:50.174Z,89.30
2017-07-31T00:08:17.721Z,89.60
2017-07-31T00:10:45.265Z,89.70
2017-07-31T00:13:12.862Z,90.00
2017-07-31T00:15:42.420Z,90.20
2017-07-31T00:18:09.973Z,90.10
2017-07-31T00:20:37.484Z,90.30
2017-07-31T00:23:05.045Z,90.40
2017-07-31T00:25:33.564Z,90.50
2017-07-31T00:28:01.165Z,90.50
2017-07-31T00:30:28.688Z,90.70
2017-07-31T00:32:56.221Z,90.60
2017-07-31T00:35:23.750Z,90.70
2017-07-31T00:37:51.359Z,90.60
2017-07-31T00:40:18.933Z,90.90
2017-07-31T00:42:46.513Z,91.00
2017-07-31T00:45:14.050Z,91.10
2017-07-31T00:47:41.589Z,91.10
2017-07-31T00:50:09.099Z,91.20
2017-07-31T00:52:36.672Z,91.30
2017-07-31T00:55:04.219Z,91.40
2017-07-31T00:57:31.771Z,91.30
2017-07-31T00:59:59.291Z,91.40
2017-07-31T01:02:26.841Z,91.40
2017-07-31T01:04:54.374Z,91.70
2017-07-31T01:07:21.909Z,91.70
2017-07-31T01:09:49.434Z,91.70
2017-07-31T01:12:16.984Z,91.70
2017-07-31T01:14:44.506Z,91.80
2017-07-31T01:17:12.032Z,91.60
2017-07-31T01:19:39.547Z,91.70
2017-07-31T01:22:07.124Z,91.60
2017-07-31T01:24:42.411Z,91.80
2017-07-31T01:27:09.950Z,91.80
2017-07-31T01:29:37.461Z,92.10
2017-07-31T01:32:05.006Z,92.10
2017-07-31T01:34:32.540Z,92.10
2017-07-31T01:37:00.164Z,92.10
2017-07-31T01:39:27.694Z,92.10
2017-07-31T01:41:55.251Z,92.20
2017-07-31T01:44:22.794Z,92.10
2017-07-31T01:46:50.381Z,92.10
2017-07-31T01:49:17.898Z,92.10
2017-07-31T01:51:45.443Z,91.80
2017-07-31T01:54:13.003Z,91.70
2017-07-31T01:56:40.592Z,91.90
2017-07-31T01:59:08.134Z,91.80
2017-07-31T02:01:35.719Z,91.80
2017-07-31T02:04:03.246Z,91.70
2017-07-31T02:06:30.830Z,91.80
2017-07-31T02:08:58.408Z,91.70
2017-07-31T02:11:25.974Z,91.90
2017-07-31T02:13:53.498Z,91.90
2017-07-31T02:16:21.029Z,91.70
2017-07-31T02:18:48.558Z,91.70
2017-07-31T02:21:16.135Z,91.60
2017-07-31T02:23:43.687Z,91.70
2017-07-31T02:26:11.301Z,91.40
2017-07-31T02:28:38.828Z,91.50
2017-07-31T02:31:06.395Z,91.60
2017-07-31T02:33:33.965Z,91.50
2017-07-31T02:36:01.553Z,91.30
2017-07-31T02:38:29.091Z,91.20
2017-07-31T02:40:56.634Z,91.00
2017-07-31T02:43:24.166Z,90.40
2017-07-31T02:45:57.436Z,89.70
2017-07-31T02:48:24.950Z,89.60
2017-07-31T02:50:52.503Z,90.00
2017-07-31T02:53:20.025Z,89.60
2017-07-31T02:55:47.579Z,88.50
2017-07-31T02:58:15.142Z,88.40
2017-07-31T03:00:42.717Z,88.20
2017-07-31T03:03:10.277Z,89.10
2017-07-31T03:05:37.834Z,88.80
2017-07-31T03:08:05.412Z,88.60
2017-07-31T03:10:33.014Z,89.00
2017-07-31T03:13:00.598Z,88.90
2017-07-31T03:15:31.733Z,88.70
2017-07-31T03:17:59.265Z,88.20
2017-07-31T03:20:26.788Z,88.80
2017-07-31T03:22:54.425Z,89.30
2017-07-31T03:25:21.962Z,89.20
2017-07-31T03:27:49.469Z,89.70
2017-07-31T03:30:17.054Z,90.00
2017-07-31T03:32:44.560Z,89.40
2017-07-31T03:35:12.127Z,90.10
2017-07-31T03:37:39.716Z,90.20
2017-07-31T03:40:07.253Z,90.40
2017-07-31T03:42:34.758Z,90.50
2017-07-31T03:45:02.303Z,90.40
2017-07-31T03:47:29.821Z,90.90
2017-07-31T03:49:57.352Z,90.60
2017-07-31T03:52:24.888Z,90.70
2017-07-31T03:54:52.509Z,90.90
2017-07-31T03:57:20.044Z,91.00
2017-07-31T03:59:47.585Z,91.10
2017-07-31T04:02:15.089Z,91.40
2017-07-31T04:04:42.621Z,91.20
2017-07-31T04:07:10.141Z,91.30
2017-07-31T04:09:37.671Z,91.40
2017-07-31T04:12:05.198Z,91.40
2017-07-31T04:14:32.773Z,91.50
2017-07-31T04:17:00.289Z,91.70
2017-07-31T04:19:27.868Z,91.70
2017-07-31T04:21:55.399Z,91.70
2017-07-31T04:24:22.926Z,91.70
2017-07-31T04:26:50.448Z,91.60
2017-07-31T04:29:17.965Z,91.60
2017-07-31T04:31:45.537Z,91.60
2017-07-31T04:34:13.050Z,91.50
2017-07-31T04:36:40.605Z,91.30
2017-07-31T04:39:08.134Z,91.30
2017-07-31T04:41:35.686Z,91.00
2017-07-31T04:44:03.232Z,90.30
2017-07-31T04:46:30.809Z,88.50
2017-07-31T04:48:58.376Z,85.60
2017-07-31T04:51:25.946Z,80.30
2017-07-31T04:53:53.456Z,76.90
2017-07-31T04:56:20.984Z,74.40
2017-07-31T04:58:48.506Z,71.10
2017-07-31T05:01:16.036Z,68.70
2017-07-31T05:03:43.558Z,65.60
2017-07-31T05:06:11.079Z,63.30
2017-07-31T05:08:38.613Z,61.90
2017-07-31T05:11:06.185Z,60.70
2017-07-31T05:13:33.705Z,59.40
2017-07-31T05:16:01.216Z,59.70
2017-07-31T05:18:28.724Z,60.90
2017-07-31T05:20:56.256Z,63.20
2017-07-31T05:23:23.781Z,63.70
2017-07-31T05:25:51.332Z,65.10
2017-07-31T05:28:18.901Z,65.50
2017-07-31T05:30:46.476Z,65.30
2017-07-31T05:33:14.069Z,65.20
2017-07-31T05:35:41.622Z,64.10
2017-07-31T05:38:09.143Z,63.40
2017-07-31T05:40:36.675Z,62.40
2017-07-31T05:43:04.222Z,61.60
2017-07-31T05:45:31.741Z,61.40
2017-07-31T05:47:59.316Z,61.60
2017-07-31T05:50:26.920Z,64.80
2017-07-31T05:52:54.490Z,66.10
2017-07-31T05:55:25.773Z,68.20
2017-07-31T05:57:53.315Z,69.50
2017-07-31T06:00:20.901Z,71.00
2017-07-31T06:02:49.145Z,72.70
2017-07-31T06:05:18.653Z,74.30
2017-07-31T06:07:46.237Z,76.00
2017-07-31T06:10:13.849Z,77.40
2017-07-31T06:12:49.038Z,78.40
2017-07-31T06:15:17.628Z,79.70
2017-07-31T06:17:45.253Z,79.80
2017-07-31T06:20:12.872Z,80.10
2017-07-31T06:22:40.519Z,80.00
2017-07-31T06:25:08.103Z,79.00
2017-07-31T06:27:35.637Z,76.50
2017-07-31T06:30:03.236Z,74.60
2017-07-31T06:32:30.748Z,73.60
2017-07-31T06:34:59.021Z,72.90
2017-07-31T06:37:29.730Z,71.80
2017-07-31T06:39:57.240Z,71.10
2017-07-31T06:42:24.742Z,69.70
2017-07-31T06:44:52.251Z,69.50
2017-07-31T06:47:19.763Z,68.90
2017-07-31T06:49:47.276Z,68.70
2017-07-31T06:52:14.783Z,68.70
2017-07-31T06:54:42.291Z,68.00
2017-07-31T06:57:09.787Z,67.60
2017-07-31T06:59:37.296Z,68.00
2017-07-31T07:02:04.794Z,67.30
2017-07-31T07:04:32.327Z,65.90
2017-07-31T07:06:59.848Z,67.30
2017-07-31T07:09:27.385Z,69.00
2017-07-31T07:11:54.879Z,69.40
2017-07-31T07:14:22.421Z,69.10
2017-07-31T07:16:49.933Z,70.80
2017-07-31T07:19:17.453Z,70.60
2017-07-31T07:21:44.973Z,71.90
2017-07-31T07:24:12.501Z,71.50
2017-07-31T07:26:40.038Z,71.70
2017-07-31T07:29:07.609Z,71.70
2017-07-31T07:31:35.174Z,70.70
2017-07-31T07:34:02.713Z,70.20
2017-07-31T07:36:33.660Z,69.40
2017-07-31T07:39:01.201Z,69.90
2017-07-31T07:41:28.701Z,70.30
2017-07-31T07:43:56.229Z,71.10
2017-07-31T07:46:23.713Z,72.10
2017-07-31T07:48:51.232Z,71.80
2017-07-31T07:51:18.746Z,70.80
2017-07-31T07:53:46.297Z,71.30
2017-07-31T07:56:13.836Z,70.90
2017-07-31T07:58:41.374Z,71.30
2017-07-31T08:01:08.976Z,69.50
2017-07-31T08:03:36.518Z,70.20
2017-07-31T08:08:57.409Z,70.80
2017-07-31T08:11:24.965Z,70.00
2017-07-31T08:13:52.497Z,69.80
2017-07-31T08:16:20.008Z,71.10
2017-07-31T08:18:47.552Z,68.90
2017-07-31T08:21:15.109Z,70.50
2017-07-31T08:23:42.722Z,68.10
2017-07-31T08:26:10.266Z,69.50
2017-07-31T08:28:37.800Z,68.80
2017-07-31T08:31:05.363Z,68.00
2017-07-31T08:33:33.132Z,68.00
2017-07-31T08:36:00.696Z,68.50
2017-07-31T08:38:33.901Z,68.00
2017-07-31T08:41:01.404Z,65.60
2017-07-31T08:43:28.921Z,64.60
2017-07-31T08:45:59.760Z,66.50
2017-07-31T08:48:27.275Z,66.50
2017-07-31T08:50:54.785Z,67.10
2017-07-31T08:53:25.955Z,66.80
2017-07-31T08:55:53.473Z,67.70
2017-07-31T08:58:21.002Z,67.90
2017-07-31T09:00:48.525Z,68.30
2017-07-31T09:03:16.095Z,67.70
2017-07-31T09:05:43.595Z,68.30
2017-07-31T09:08:11.113Z,68.30
2017-07-31T09:10:38.616Z,67.60
2017-07-31T09:13:06.140Z,67.90
2017-07-31T09:15:33.720Z,68.30
2017-07-31T09:18:01.273Z,68.20
2017-07-31T09:20:28.802Z,67.80
2017-07-31T09:22:56.332Z,67.30
2017-07-31T09:25:23.858Z,67.30
2017-07-31T09:27:51.388Z,66.50
2017-07-31T09:30:18.891Z,65.60
2017-07-31T09:32:46.417Z,66.60
2017-07-31T09:35:13.940Z,67.80
2017-07-31T09:37:41.457Z,67.10
2017-07-31T09:40:09.125Z,67.60
2017-07-31T09:42:36.660Z,67.90
2017-07-31T09:45:04.226Z,65.60
2017-07-31T09:47:31.802Z,66.00
2017-07-31T09:49:59.361Z,64.30
2017-07-31T09:52:30.532Z,63.40
2017-07-31T09:54:58.054Z,61.70
2017-07-31T09:57:25.587Z,61.50
2017-07-31T09:59:53.085Z,61.80
2017-07-31T10:02:20.638Z,62.40
2017-07-31T10:04:48.148Z,64.60
2017-07-31T10:07:15.664Z,63.30
2017-07-31T10:09:43.174Z,63.80
2017-07-31T10:12:10.690Z,64.00
2017-07-31T10:14:38.196Z,62.90
2017-07-31T10:17:05.733Z,62.40
2017-07-31T10:19:33.229Z,63.20
2017-07-31T10:22:00.751Z,61.00
2017-07-31T10:24:28.249Z,62.10
2017-07-31T10:26:55.754Z,60.40
2017-07-31T10:29:23.284Z,61.40
2017-07-31T10:31:50.790Z,62.80
2017-07-31T10:34:18.558Z,62.50
2017-07-31T10:36:46.085Z,61.80
2017-07-31T10:39:13.673Z,63.00
2017-07-31T10:41:41.213Z,62.40
2017-07-31T10:44:08.833Z,62.50
2017-07-31T10:46:36.374Z,62.90
2017-07-31T10:49:04.007Z,63.50
2017-07-31T10:51:34.433Z,65.80
2017-07-31T10:54:01.964Z,65.50
2017-07-31T10:56:29.469Z,65.60
2017-07-31T10:58:57.006Z,64.40
2017-07-31T11:01:24.740Z,64.60
2017-07-31T11:03:52.575Z,65.20
2017-07-31T11:06:20.178Z,65.60
2017-07-31T11:08:47.782Z,66.90
2017-07-31T11:11:15.380Z,67.50
2017-07-31T11:13:42.993Z,67.90
2017-07-31T11:16:10.610Z,67.50
2017-07-31T11:18:38.239Z,67.10
2017-07-31T11:21:05.832Z,66.40
2017-07-31T11:23:33.445Z,65.60
2017-07-31T11:26:01.031Z,66.30
2017-07-31T11:28:28.723Z,66.80
2017-07-31T11:30:56.383Z,66.80
2017-07-31T11:33:23.937Z,65.80
2017-07-31T11:35:51.497Z,65.50
2017-07-31T11:38:19.120Z,65.20
2017-07-31T11:40:46.700Z,63.80
2017-07-31T11:43:14.276Z,62.10
2017-07-31T11:45:41.865Z,62.10
2017-07-31T11:48:09.456Z,63.40
2017-07-31T11:50:37.122Z,63.60
2017-07-31T11:53:08.562Z,63.50
2017-07-31T11:55:36.070Z,64.40
2017-07-31T11:58:03.585Z,63.30
2017-07-31T12:00:31.096Z,62.00
2017-07-31T12:02:58.618Z,63.80
2017-07-31T12:05:26.141Z,62.40
2017-07-31T12:07:53.672Z,62.60
2017-07-31T12:10:21.181Z,62.90
2017-07-31T12:12:48.704Z,62.40
2017-07-31T12:15:16.233Z,63.80
2017-07-31T12:17:43.758Z,62.70
2017-07-31T12:20:11.283Z,62.20
2017-07-31T12:22:38.807Z,61.50
2017-07-31T12:25:06.330Z,61.20
2017-07-31T12:27:33.977Z,61.10
2017-07-31T12:30:01.481Z,60.00
2017-07-31T12:32:29.035Z,58.00
2017-07-31T12:34:56.568Z,60.10
2017-07-31T12:37:24.105Z,59.50
2017-07-31T12:39:51.637Z,60.00
2017-07-31T12:42:19.183Z,58.00
2017-07-31T12:44:51.175Z,58.70
2017-07-31T12:47:18.716Z,58.40
2017-07-31T12:49:46.252Z,54.00
2017-07-31T12:52:17.545Z,53.60
2017-07-31T12:54:45.092Z,54.60
2017-07-31T12:57:12.610Z,55.20
2017-07-31T12:59:40.113Z,58.30
2017-07-31T13:02:07.704Z,58.80
2017-07-31T13:04:35.222Z,62.00
2017-07-31T13:07:02.751Z,62.10
2017-07-31T13:09:30.269Z,62.30
2017-07-31T13:11:57.786Z,61.80
2017-07-31T13:14:25.610Z,60.40
2017-07-31T13:16:53.209Z,59.30
2017-07-31T13:19:20.805Z,59.10
2017-07-31T13:21:48.344Z,58.40
2017-07-31T13:24:15.840Z,58.70
2017-07-31T13:26:43.398Z,58.10
2017-07-31T13:29:10.897Z,58.60
2017-07-31T13:31:38.424Z,59.40
2017-07-31T13:34:05.959Z,59.10
2017-07-31T13:36:33.464Z,58.10
2017-07-31T13:39:01.034Z,58.20
2017-07-31T13:41:28.558Z,57.30
2017-07-31T13:46:28.553Z,57.40
2017-07-31T13:48:56.079Z,59.30
2017-07-31T13:51:23.611Z,58.50
2017-07-31T13:53:51.133Z,58.40
2017-07-31T13:56:18.632Z,59.60
2017-07-31T13:58:46.151Z,60.30
2017-07-31T14:01:13.667Z,61.00
2017-07-31T14:03:41.207Z,60.00
2017-07-31T14:06:08.983Z,60.10
2017-07-31T14:08:36.525Z,60.40
2017-07-31T14:11:04.017Z,61.30
2017-07-31T14:13:31.527Z,60.50
2017-07-31T14:16:02.660Z,58.40
2017-07-31T14:18:30.182Z,58.00
2017-07-31T14:20:57.681Z,57.90
2017-07-31T14:23:25.200Z,57.30
2017-07-31T14:25:52.716Z,57.20
2017-07-31T14:28:20.235Z,57.10
2017-07-31T14:30:47.960Z,57.20
2017-07-31T14:33:16.071Z,60.00
2017-07-31T14:35:47.755Z,59.50
2017-07-31T14:38:15.302Z,59.80
2017-07-31T14:43:15.322Z,62.40
2017-07-31T14:51:13.625Z,61.10
2017-07-31T14:53:41.252Z,60.90
2017-07-31T14:56:09.814Z,60.50
2017-07-31T14:58:37.674Z,60.30
2017-07-31T15:01:05.189Z,61.50
2017-07-31T15:03:32.971Z,62.40
2017-07-31T15:06:00.835Z,63.40
2017-07-31T15:08:28.384Z,64.00
2017-07-31T15:10:55.881Z,62.90
2017-07-31T15:13:23.396Z,63.70
2017-07-31T15:15:53.968Z,64.60
2017-07-31T15:18:21.483Z,64.30
2017-07-31T15:20:48.984Z,63.20
2017-07-31T15:23:16.500Z,63.10
2017-07-31T15:25:43.997Z,64.00
2017-07-31T15:28:11.512Z,64.20
2017-07-31T15:30:39.010Z,62.80
2017-07-31T15:33:06.515Z,62.30
2017-07-31T15:35:34.008Z,62.60
2017-07-31T15:38:01.530Z,63.30
2017-07-31T15:40:29.025Z,64.40
2017-07-31T15:42:56.525Z,64.20
2017-07-31T15:45:24.057Z,64.30
2017-07-31T15:47:51.545Z,64.20
2017-07-31T15:50:19.066Z,62.40
2017-07-31T15:52:46.561Z,62.80
2017-07-31T15:55:14.070Z,64.90
2017-07-31T15:57:41.589Z,62.40
2017-07-31T16:00:09.092Z,61.80
2017-07-31T16:02:36.613Z,62.00
2017-07-31T16:05:04.125Z,61.70
2017-07-31T16:07:31.646Z,61.50
2017-07-31T16:09:59.141Z,61.90
2017-07-31T16:12:26.650Z,60.80
2017-07-31T16:14:57.277Z,61.10
2017-07-31T16:17:24.810Z,59.60
2017-07-31T16:19:52.316Z,59.90
2017-07-31T16:22:24.013Z,58.70
2017-07-31T16:24:51.510Z,58.70
2017-07-31T16:27:19.012Z,59.80
2017-07-31T16:29:46.525Z,59.20
2017-07-31T16:32:14.037Z,60.50
2017-07-31T16:34:41.588Z,60.90
2017-07-31T16:37:17.613Z,61.10
2017-07-31T16:39:45.137Z,61.40
2017-07-31T16:42:12.643Z,61.60
2017-07-31T16:44:47.999Z,61.10
2017-07-31T16:47:39.073Z,61.90
2017-07-31T16:50:06.594Z,62.30
2017-07-31T16:52:34.090Z,61.80
2017-07-31T16:55:01.592Z,62.80
2017-07-31T16:57:29.108Z,62.00
2017-07-31T16:59:56.607Z,62.60
2017-07-31T17:02:24.123Z,61.90
2017-07-31T17:04:51.620Z,62.20
2017-07-31T17:07:19.127Z,61.60
2017-07-31T17:09:46.637Z,61.50
2017-07-31T17:12:14.156Z,61.50
2017-07-31T17:14:41.650Z,61.60
2017-07-31T17:17:09.173Z,62.80
2017-07-31T17:19:36.668Z,62.10
2017-07-31T17:22:07.114Z,63.50
2017-07-31T17:24:34.624Z,63.10
2017-07-31T17:27:02.145Z,63.40
2017-07-31T17:29:29.641Z,63.00
2017-07-31T17:31:57.128Z,62.90
2017-07-31T17:34:24.655Z,63.70
2017-07-31T17:36:52.406Z,63.60
2017-07-31T17:39:19.967Z,64.20
2017-07-31T17:41:50.589Z,64.90
2017-07-31T17:44:18.388Z,64.80
2017-07-31T17:46:45.897Z,65.20
2017-07-31T17:49:13.389Z,65.90
2017-07-31T17:51:40.904Z,67.20
2017-07-31T17:54:08.393Z,67.50
2017-07-31T17:56:35.910Z,67.40
2017-07-31T17:59:03.417Z,67.40
2017-07-31T18:01:30.915Z,67.70
2017-07-31T18:03:58.436Z,68.10
2017-07-31T18:06:25.935Z,67.80
2017-07-31T18:08:53.460Z,68.30
2017-07-31T18:11:20.949Z,69.00
2017-07-31T18:13:48.467Z,69.90
2017-07-31T18:16:15.975Z,70.30
2017-07-31T18:18:43.492Z,70.00
2017-07-31T18:21:10.993Z,70.00
2017-07-31T18:23:38.511Z,70.60
2017-07-31T18:26:06.008Z,70.80
2017-07-31T18:28:33.525Z,71.50
2017-07-31T18:31:01.028Z,72.20
2017-07-31T18:33:28.549Z,73.20
2017-07-31T18:35:56.045Z,73.60
2017-07-31T18:38:23.566Z,73.70
2017-07-31T18:40:51.065Z,74.60
2017-07-31T18:43:21.941Z,75.00
2017-07-31T18:45:49.433Z,75.50
2017-07-31T18:48:16.945Z,75.60
2017-07-31T18:50:44.454Z,75.80
2017-07-31T18:53:11.973Z,76.50
2017-07-31T18:55:39.468Z,76.80
2017-07-31T18:58:06.983Z,78.10
2017-07-31T19:00:34.472Z,78.60
2017-07-31T19:03:01.993Z,78.40
2017-07-31T19:05:29.525Z,79.10
2017-07-31T19:07:57.028Z,79.90
2017-07-31T19:10:24.541Z,80.30
2017-07-31T19:12:52.041Z,80.50
2017-07-31T19:15:19.552Z,80.40
2017-07-31T19:17:47.049Z,80.60
2017-07-31T19:20:14.564Z,80.80
2017-07-31T19:22:42.065Z,80.80
2017-07-31T19:25:09.587Z,80.80
2017-07-31T19:27:37.085Z,80.00
2017-07-31T19:30:04.626Z,79.20
2017-07-31T19:32:32.145Z,79.00
2017-07-31T19:34:59.658Z,78.70
2017-07-31T19:37:27.185Z,79.00
2017-07-31T19:39:54.675Z,79.60
2017-07-31T19:42:22.189Z,79.80
2017-07-31T19:44:49.689Z,79.40
2017-07-31T19:47:17.203Z,79.40
2017-07-31T19:49:44.731Z,80.10
2017-07-31T19:52:12.261Z,79.60
2017-07-31T19:54:40.117Z,79.00
2017-07-31T19:57:07.617Z,79.20
2017-07-31T19:59:35.711Z,79.50
2017-07-31T20:02:03.219Z,79.00
2017-07-31T20:04:30.901Z,78.80
2017-07-31T20:06:58.432Z,78.00
2017-07-31T20:09:25.954Z,77.60
2017-07-31T20:11:53.452Z,77.50
2017-07-31T20:14:20.982Z,76.90
2017-07-31T20:16:48.525Z,75.90
2017-07-31T20:19:16.052Z,77.20
2017-07-31T20:21:43.552Z,76.80
2017-07-31T20:24:11.078Z,75.90
2017-07-31T20:26:38.604Z,76.70
2017-07-31T20:29:06.118Z,77.50
2017-07-31T20:31:33.628Z,78.20
2017-07-31T20:34:01.154Z,78.60
2017-07-31T20:36:29.573Z,78.90
2017-07-31T20:38:57.274Z,79.10
2017-07-31T20:41:28.564Z,78.40
2017-07-31T20:43:56.090Z,77.90
2017-07-31T20:46:23.596Z,78.30
2017-07-31T20:48:51.118Z,79.10
2017-07-31T20:51:18.634Z,79.70
2017-07-31T20:53:46.170Z,79.60
2017-07-31T20:56:13.714Z,79.70
2017-07-31T20:58:41.251Z,78.50
2017-07-31T21:01:08.985Z,78.70
2017-07-31T21:03:36.517Z,78.70
2017-07-31T21:06:04.039Z,80.00
2017-07-31T21:08:31.585Z,80.40
2017-07-31T21:10:59.089Z,80.70
2017-07-31T21:13:26.609Z,81.00
2017-07-31T21:15:54.109Z,80.50
2017-07-31T21:18:21.988Z,80.90
2017-07-31T21:20:49.501Z,81.60
2017-07-31T21:23:17.016Z,81.20
2017-07-31T21:25:44.520Z,81.40
2017-07-31T21:28:12.037Z,81.60
2017-07-31T21:30:39.538Z,81.20
2017-07-31T21:33:07.071Z,82.30
2017-07-31T21:35:34.565Z,81.80
2017-07-31T21:38:02.108Z,82.00
2017-07-31T21:40:29.616Z,82.30
2017-07-31T21:43:00.469Z,82.40
2017-07-31T21:45:27.964Z,82.70
2017-07-31T21:47:55.482Z,82.60
2017-07-31T21:50:22.982Z,83.00
2017-07-31T21:52:50.504Z,82.90
2017-07-31T21:55:18.000Z,83.10
2017-07-31T21:57:45.510Z,83.10
2017-07-31T22:00:13.021Z,83.30
2017-07-31T22:02:40.572Z,83.60
2017-07-31T22:05:08.077Z,83.30
2017-07-31T22:07:35.618Z,83.80
2017-07-31T22:10:03.156Z,83.70
2017-07-31T22:12:30.695Z,84.20
2017-07-31T22:14:58.201Z,84.40
2017-07-31T22:17:31.309Z,84.70
2017-07-31T22:19:58.809Z,84.20
2017-07-31T22:22:26.321Z,84.50
2017-07-31T22:24:53.824Z,84.60
2017-07-31T22:27:21.331Z,84.20
2017-07-31T22:29:48.823Z,84.50
2017-07-31T22:32:16.332Z,84.50
2017-07-31T22:34:43.830Z,84.80
2017-07-31T22:37:11.349Z,85.20
2017-07-31T22:39:38.841Z,85.40
2017-07-31T22:42:09.797Z,84.90
2017-07-31T22:44:37.305Z,85.50
2017-07-31T22:47:04.833Z,85.30
2017-07-31T22:49:32.328Z,85.20
2017-07-31T22:51:59.848Z,85.20
2017-07-31T22:54:27.345Z,85.20
2017-07-31T22:56:54.860Z,85.40
2017-07-31T22:59:22.349Z,85.50
2017-07-31T23:01:49.867Z,84.80
2017-07-31T23:04:17.372Z,84.60
2017-07-31T23:06:44.891Z,84.90
2017-07-31T23:09:12.392Z,84.40
2017-07-31T23:11:39.916Z,84.40
2017-07-31T23:14:07.417Z,84.40
2017-07-31T23:16:34.928Z,84.30
2017-07-31T23:19:02.425Z,84.60
2017-07-31T23:21:29.940Z,84.40
2017-07-31T23:23:58.276Z,83.90
2017-07-31T23:26:25.797Z,83.70
2017-07-31T23:28:53.303Z,83.80
2017-07-31T23:31:20.816Z,83.40
2017-07-31T23:33:48.315Z,83.60
2017-07-31T23:36:15.834Z,82.80
2017-07-31T23:38:43.332Z,82.70
2017-07-31T23:41:10.848Z,82.70
2017-07-31T23:43:42.197Z,83.10
2017-07-31T23:46:09.710Z,83.20
2017-07-31T23:48:37.219Z,82.10
2017-07-31T23:51:04.741Z,82.30
2017-07-31T23:53:32.229Z,81.50
2017-07-31T23:55:59.755Z,81.60
2017-07-31T23:58:27.253Z,81.90
